createdAt,value
2019-05-21T00:04:45.279Z,98815.52
2019-05-21T00:09:49.873Z,98824.31
2019-05-21T00:14:55.559Z,98835.01
2019-05-21T00:20:00.159Z,98834.05
2019-05-21T00:25:06.303Z,98833.70
2019-05-21T00:30:47.396Z,98849.33
2019-05-21T00:36:29.998Z,98846.61
2019-05-21T00:42:01.988Z,98860.32
2019-05-21T00:47:09.525Z,98855.52
2019-05-21T00:52:14.162Z,98855.76
2019-05-21T00:57:18.969Z,98871.34
2019-05-21T01:02:24.770Z,98869.75
2019-05-21T01:07:29.385Z,98875.09
2019-05-21T01:12:33.747Z,98878.91
2019-05-21T01:17:38.110Z,98884.66
2019-05-21T01:22:42.490Z,98888.04
2019-05-21T01:27:46.849Z,98891.38
2019-05-21T01:32:51.251Z,98890.11
2019-05-21T01:37:55.571Z,98893.14
2019-05-21T01:43:03.207Z,98900.50
2019-05-21T01:48:06.026Z,98895.30
2019-05-21T01:53:10.368Z,98896.48
2019-05-21T01:58:14.733Z,98901.53
2019-05-21T02:03:19.132Z,98894.92
2019-05-21T02:08:23.485Z,98895.92
2019-05-21T02:13:27.798Z,98895.11
2019-05-21T02:18:33.014Z,98895.30
2019-05-21T02:23:37.397Z,98899.91
2019-05-21T02:28:41.727Z,98904.95
2019-05-21T02:33:46.089Z,98897.69
2019-05-21T02:38:50.596Z,98905.84
2019-05-21T02:43:54.960Z,98904.95
2019-05-21T02:48:59.345Z,98906.13
2019-05-21T02:54:03.692Z,98906.88
2019-05-21T02:59:08.076Z,98910.97
2019-05-21T03:04:12.397Z,98907.33
2019-05-21T03:09:16.754Z,98904.09
2019-05-21T03:14:21.135Z,98910.82
2019-05-21T03:19:25.499Z,98916.59
2019-05-21T03:24:29.846Z,98918.44
2019-05-21T03:29:34.244Z,98913.94
2019-05-21T03:34:38.594Z,98908.84
2019-05-21T03:39:42.923Z,98915.20
2019-05-21T03:44:59.176Z,98914.04
2019-05-21T03:49:53.602Z,98907.57
2019-05-21T03:55:02.677Z,98917.09
2019-05-21T04:00:06.372Z,98915.20
2019-05-21T04:05:10.895Z,98918.31
2019-05-21T04:10:15.334Z,98922.12
2019-05-21T04:15:25.126Z,98920.00
2019-05-21T04:20:29.466Z,98928.16
2019-05-21T04:25:33.809Z,98944.42
2019-05-21T04:30:38.154Z,98943.05
2019-05-21T04:35:42.490Z,98955.71
2019-05-21T04:40:46.843Z,98956.70
2019-05-21T04:45:52.526Z,98967.16
2019-05-21T04:51:00.981Z,98985.28
2019-05-21T04:56:07.996Z,98982.26
2019-05-21T05:01:12.702Z,98975.05
2019-05-21T05:06:17.125Z,98976.49
2019-05-21T05:11:21.519Z,98968.56
2019-05-21T05:16:25.864Z,98972.88
2019-05-21T05:21:30.257Z,98982.37
2019-05-21T05:26:34.700Z,98997.25
2019-05-21T05:31:39.048Z,98994.84
2019-05-21T05:36:43.362Z,98991.48
2019-05-21T05:41:47.721Z,98999.95
2019-05-21T05:46:52.069Z,98993.20
2019-05-21T05:51:56.441Z,99002.00
2019-05-21T05:57:00.790Z,99013.80
2019-05-21T06:02:05.417Z,99003.31
2019-05-21T06:07:09.800Z,99005.26
2019-05-21T06:12:14.142Z,99002.73
2019-05-21T06:17:18.676Z,99004.53
2019-05-21T06:22:23.694Z,99001.56
2019-05-21T06:27:28.043Z,99000.58
2019-05-21T06:32:32.417Z,99006.41
2019-05-21T06:37:36.793Z,99001.16
2019-05-21T06:42:41.168Z,99002.86
2019-05-21T06:47:45.541Z,99003.72
2019-05-21T06:52:49.915Z,99017.56
2019-05-21T06:57:54.310Z,99011.06
2019-05-21T07:02:58.676Z,99018.39
2019-05-21T07:08:03.033Z,99031.28
2019-05-21T07:13:07.373Z,99030.47
2019-05-21T07:18:11.746Z,99033.78
2019-05-21T07:23:16.124Z,99028.62
2019-05-21T07:28:20.551Z,99029.32
2019-05-21T07:33:24.933Z,99042.92
2019-05-21T07:38:29.310Z,99053.05
2019-05-21T07:43:33.837Z,99056.25
2019-05-21T07:48:38.349Z,99058.83
2019-05-21T07:53:42.721Z,99062.16
2019-05-21T07:58:47.106Z,99066.58
2019-05-21T08:03:51.469Z,99074.94
2019-05-21T08:09:11.551Z,99081.09
2019-05-21T08:14:02.919Z,99079.19
2019-05-21T08:19:07.285Z,99076.89
2019-05-21T08:24:11.649Z,99076.13
2019-05-21T08:29:16.029Z,99070.84
2019-05-21T08:34:20.397Z,99072.55
2019-05-21T08:39:28.710Z,99074.38
2019-05-21T08:44:30.830Z,99082.67
2019-05-21T08:49:36.170Z,99087.14
2019-05-21T08:54:50.381Z,99091.81
2019-05-21T08:59:54.770Z,99099.44
2019-05-21T09:04:59.138Z,99102.43
2019-05-21T09:10:04.847Z,99101.77
2019-05-21T09:15:09.790Z,99105.20
2019-05-21T09:20:16.319Z,99104.86
2019-05-21T09:25:20.683Z,99111.47
2019-05-21T09:30:25.196Z,99109.81
2019-05-21T09:35:29.603Z,99103.78
2019-05-21T09:40:34.024Z,99105.48
2019-05-21T09:45:38.457Z,99113.41
2019-05-21T09:50:42.856Z,99118.86
2019-05-21T09:55:48.278Z,99119.09
2019-05-21T10:01:10.625Z,99115.67
2019-05-21T10:06:16.134Z,99118.82
2019-05-21T10:11:20.505Z,99127.66
2019-05-21T10:16:24.972Z,99120.91
2019-05-21T10:21:29.316Z,99127.79
2019-05-21T10:26:34.222Z,99125.85
2019-05-21T10:31:38.655Z,99124.37
2019-05-21T10:36:43.131Z,99135.14
2019-05-21T10:41:47.506Z,99131.97
2019-05-21T10:46:51.977Z,99132.73
2019-05-21T10:51:56.343Z,99142.69
2019-05-21T10:57:00.731Z,99145.34
2019-05-21T11:02:06.869Z,99142.57
2019-05-21T11:07:13.133Z,99143.80
2019-05-21T11:12:17.630Z,99144.55
2019-05-21T11:17:22.141Z,99141.00
2019-05-21T11:22:26.511Z,99141.02
2019-05-21T11:27:30.882Z,99136.14
2019-05-21T11:32:35.338Z,99136.89
2019-05-21T11:37:39.719Z,99133.68
2019-05-21T11:42:44.317Z,99137.44
2019-05-21T11:47:48.812Z,99137.13
2019-05-21T11:52:53.410Z,99142.56
2019-05-21T11:57:58.867Z,99139.24
2019-05-21T12:03:03.438Z,99139.90
2019-05-21T12:08:07.943Z,99144.82
2019-05-21T12:13:12.399Z,99134.95
2019-05-21T12:18:16.863Z,99135.31
2019-05-21T12:23:21.242Z,99131.75
2019-05-21T12:28:25.626Z,99139.80
2019-05-21T12:33:29.993Z,99135.55
2019-05-21T12:38:34.370Z,99137.11
2019-05-21T12:43:38.681Z,99134.47
2019-05-21T12:48:43.018Z,99133.44
2019-05-21T12:53:47.501Z,99137.08
2019-05-21T12:58:51.835Z,99137.29
2019-05-21T13:03:56.261Z,99140.58
2019-05-21T13:09:00.785Z,99140.79
2019-05-21T13:14:06.868Z,99138.75
2019-05-21T13:19:11.484Z,99137.67
2019-05-21T13:24:15.858Z,99143.23
2019-05-21T13:29:20.205Z,99144.22
2019-05-21T13:34:24.551Z,99142.84
2019-05-21T13:39:28.929Z,99147.09
2019-05-21T13:44:33.416Z,99147.24
2019-05-21T13:49:37.737Z,99154.89
2019-05-21T13:54:42.095Z,99156.32
2019-05-21T13:59:46.677Z,99166.48
2019-05-21T14:04:51.066Z,99161.64
2019-05-21T14:10:13.539Z,99165.39
2019-05-21T14:15:01.500Z,99158.15
2019-05-21T14:20:08.589Z,99162.62
2019-05-21T14:25:13.117Z,99160.86
2019-05-21T14:30:17.752Z,99162.69
2019-05-21T14:35:22.142Z,99159.19
2019-05-21T14:40:32.523Z,99159.67
2019-05-21T14:45:34.498Z,99160.93
2019-05-21T14:50:39.083Z,99154.23
2019-05-21T14:55:43.644Z,99159.47
2019-05-21T15:00:47.992Z,99148.94
2019-05-21T15:05:52.392Z,99157.12
2019-05-21T15:10:56.795Z,99152.47
2019-05-21T15:16:01.177Z,99156.95
2019-05-21T15:21:17.656Z,99158.54
2019-05-21T15:26:21.999Z,99161.55
2019-05-21T15:31:26.526Z,99159.72
2019-05-21T15:36:31.314Z,99182.72
2019-05-21T15:41:35.678Z,99184.26
2019-05-21T15:46:49.878Z,99192.83
2019-05-21T15:51:46.227Z,99190.17
2019-05-21T15:56:50.705Z,99185.08
2019-05-21T16:01:55.249Z,99186.23
2019-05-21T16:06:59.615Z,99182.97
2019-05-21T16:12:04.014Z,99176.97
2019-05-21T16:17:08.387Z,99185.33
2019-05-21T16:22:12.834Z,99180.52
2019-05-21T16:27:17.198Z,99182.48
2019-05-21T16:32:22.497Z,99186.11
2019-05-21T16:37:26.848Z,99182.12
2019-05-21T16:42:31.179Z,99188.73
2019-05-21T16:47:45.911Z,99188.03
2019-05-21T16:52:42.683Z,99192.25
2019-05-21T16:57:48.106Z,99200.19
2019-05-21T17:02:52.601Z,99197.01
2019-05-21T17:07:56.973Z,99200.59
2019-05-21T17:13:01.314Z,99200.94
2019-05-21T17:18:06.846Z,99211.91
2019-05-21T17:23:11.224Z,99218.48
2019-05-21T17:28:15.609Z,99216.20
2019-05-21T17:33:19.954Z,99220.58
2019-05-21T17:38:24.759Z,99220.02
2019-05-21T17:43:30.784Z,99223.87
2019-05-21T17:48:35.183Z,99221.23
2019-05-21T17:53:39.789Z,99227.55
2019-05-21T17:58:44.155Z,99214.40
2019-05-21T18:03:49.751Z,99224.55
2019-05-21T18:08:54.398Z,99231.21
2019-05-21T18:14:00.237Z,99235.69
2019-05-21T18:19:08.414Z,99236.55
2019-05-21T18:24:12.147Z,99243.93
2019-05-21T18:29:16.556Z,99252.27
2019-05-21T18:34:21.153Z,99260.12
2019-05-21T18:39:25.678Z,99263.88
2019-05-21T18:44:30.668Z,99278.02
2019-05-21T18:49:35.243Z,99281.38
2019-05-21T18:54:39.680Z,99284.39
2019-05-21T18:59:44.086Z,99298.41
2019-05-21T19:04:48.457Z,99311.26
2019-05-21T19:09:52.937Z,99314.52
2019-05-21T19:14:57.556Z,99323.46
2019-05-21T19:20:02.039Z,99337.55
2019-05-21T19:25:08.511Z,99342.95
2019-05-21T19:30:13.875Z,99342.86
2019-05-21T19:35:18.320Z,99355.53
2019-05-21T19:40:22.909Z,99360.06
2019-05-21T19:45:27.367Z,99361.84
2019-05-21T19:50:32.302Z,99365.67
2019-05-21T19:55:38.680Z,99376.34
2019-05-21T20:00:44.853Z,99390.45
2019-05-21T20:05:49.641Z,99402.70
2019-05-21T20:10:54.236Z,99407.20
2019-05-21T20:15:59.559Z,99408.23
2019-05-21T20:21:04.826Z,99414.20
2019-05-21T20:26:12.452Z,99412.66
2019-05-21T20:31:17.394Z,99424.33
2019-05-21T20:36:22.374Z,99435.77
2019-05-21T20:41:27.757Z,99434.77
2019-05-21T20:46:32.357Z,99447.70
2019-05-21T20:51:37.566Z,99457.77
2019-05-21T20:56:41.939Z,99459.75
2019-05-21T21:01:46.688Z,99461.19
2019-05-21T21:06:51.497Z,99461.19
2019-05-21T21:11:56.315Z,99479.59
2019-05-21T21:17:00.692Z,99474.86
2019-05-21T21:22:05.212Z,99476.19
2019-05-21T21:27:09.726Z,99492.97
2019-05-21T21:32:14.110Z,99488.33
2019-05-21T21:37:18.525Z,99494.45
2019-05-21T21:42:22.899Z,99496.55
2019-05-21T21:47:28.017Z,99504.98
2019-05-21T21:52:33.589Z,99504.39
2019-05-21T21:57:38.195Z,99513.82
2019-05-21T22:02:42.567Z,99518.63
2019-05-21T22:07:47.497Z,99519.95
2019-05-21T22:12:51.859Z,99523.25
2019-05-21T22:17:56.401Z,99520.16
2019-05-21T22:23:01.659Z,99526.56
2019-05-21T22:28:07.178Z,99527.13
2019-05-21T22:33:12.026Z,99542.14
2019-05-21T22:38:16.522Z,99535.60
2019-05-21T22:43:20.898Z,99540.21
2019-05-21T22:48:25.360Z,99546.70
2019-05-21T22:53:29.738Z,99546.81
2019-05-21T22:58:34.109Z,99548.03
2019-05-21T23:03:39.513Z,99553.47
2019-05-21T23:08:43.940Z,99556.25
2019-05-21T23:13:48.309Z,99547.50
2019-05-21T23:18:54.499Z,99553.98
2019-05-21T23:24:17.948Z,99555.91
2019-05-21T23:29:22.787Z,99544.72
2019-05-21T23:34:27.219Z,99544.73
2019-05-21T23:39:32.229Z,99548.53
2019-05-21T23:44:38.055Z,99547.62
2019-05-21T23:49:42.418Z,99547.27
2019-05-21T23:54:47.264Z,99541.36
2019-05-21T23:59:51.697Z,99538.84
